createdAt,value
2018-05-03T00:01:35.170Z,92.89
2018-05-03T00:04:04.744Z,92.97
2018-05-03T00:06:34.422Z,92.70
2018-05-03T00:09:03.568Z,92.61
2018-05-03T00:11:33.122Z,92.70
2018-05-03T00:14:02.681Z,92.83
2018-05-03T00:16:32.289Z,92.99
2018-05-03T00:19:01.891Z,93.02
2018-05-03T00:21:31.455Z,93.02
2018-05-03T00:24:01.018Z,93.33
2018-05-03T00:26:30.570Z,93.14
2018-05-03T00:29:00.362Z,92.76
2018-05-03T00:31:29.966Z,93.04
2018-05-03T00:33:59.551Z,92.88
2018-05-03T00:36:29.127Z,93.09
2018-05-03T00:38:58.698Z,92.79
2018-05-03T00:41:28.296Z,92.72
2018-05-03T00:43:57.906Z,92.88
2018-05-03T00:46:27.479Z,92.81
2018-05-03T00:48:57.034Z,92.79
2018-05-03T00:51:26.603Z,92.04
2018-05-03T00:53:56.227Z,91.93
2018-05-03T00:56:25.826Z,91.81
2018-05-03T00:58:55.383Z,92.03
2018-05-03T01:01:24.634Z,92.30
2018-05-03T01:03:54.340Z,92.53
2018-05-03T01:06:23.980Z,92.59
2018-05-03T01:08:53.526Z,92.84
2018-05-03T01:11:23.107Z,92.41
2018-05-03T01:13:52.664Z,92.12
2018-05-03T01:16:22.385Z,91.76
2018-05-03T01:18:52.104Z,91.91
2018-05-03T01:21:21.657Z,92.18
2018-05-03T01:23:50.979Z,92.08
2018-05-03T01:26:20.587Z,91.93
2018-05-03T01:28:50.133Z,91.73
2018-05-03T01:31:19.705Z,91.64
2018-05-03T01:33:49.259Z,91.47
2018-05-03T01:36:26.783Z,92.71
2018-05-03T01:38:56.652Z,92.32
2018-05-03T01:41:26.234Z,92.48
2018-05-03T01:43:55.859Z,92.75
2018-05-03T01:46:25.083Z,92.59
2018-05-03T01:48:54.785Z,92.03
2018-05-03T01:51:24.335Z,92.10
2018-05-03T01:53:54.011Z,91.83
2018-05-03T01:56:23.567Z,91.72
2018-05-03T01:58:53.136Z,91.79
2018-05-03T02:01:22.711Z,91.69
2018-05-03T02:03:52.273Z,91.96
2018-05-03T02:06:21.872Z,91.91
2018-05-03T02:08:52.266Z,92.12
2018-05-03T02:11:22.035Z,92.74
2018-05-03T02:13:51.681Z,92.56
2018-05-03T02:16:21.236Z,92.37
2018-05-03T02:18:50.803Z,92.45
2018-05-03T02:21:20.359Z,92.31
2018-05-03T02:23:49.947Z,92.11
2018-05-03T02:26:19.506Z,92.66
2018-05-03T02:28:49.059Z,91.95
2018-05-03T02:31:18.635Z,91.63
2018-05-03T02:33:48.186Z,91.45
2018-05-03T02:36:17.750Z,91.54
2018-05-03T02:38:47.318Z,91.49
2018-05-03T02:41:16.882Z,91.14
2018-05-03T02:43:46.455Z,91.33
2018-05-03T02:46:16.373Z,91.59
2018-05-03T02:48:45.939Z,91.83
2018-05-03T02:51:15.511Z,91.97
2018-05-03T02:53:48.037Z,92.58
2018-05-03T02:56:17.770Z,92.61
2018-05-03T02:58:58.223Z,92.79
2018-05-03T03:01:44.328Z,93.01
2018-05-03T03:04:30.283Z,93.30
2018-05-03T03:07:16.307Z,93.68
2018-05-03T03:10:02.338Z,93.46
2018-05-03T03:16:13.331Z,93.08
2018-05-03T03:22:19.233Z,92.75
2018-05-03T03:24:59.426Z,92.75
2018-05-03T03:27:45.580Z,93.11
2018-05-03T03:30:31.495Z,93.22
2018-05-03T03:33:11.852Z,92.98
2018-05-03T03:36:01.209Z,92.88
2018-05-03T03:38:41.502Z,92.59
2018-05-03T03:41:22.773Z,92.83
2018-05-03T03:44:03.139Z,93.35
2018-05-03T03:46:32.508Z,93.92
2018-05-03T03:49:01.874Z,94.12
2018-05-03T03:51:31.461Z,94.29
2018-05-03T03:54:01.072Z,94.44
2018-05-03T03:56:30.680Z,94.59
2018-05-03T03:59:00.264Z,94.59
2018-05-03T04:01:30.040Z,94.71
2018-05-03T04:03:59.594Z,95.02
2018-05-03T04:06:29.176Z,95.23
2018-05-03T04:08:58.750Z,95.36
2018-05-03T04:11:28.314Z,95.33
2018-05-03T04:13:57.666Z,95.28
2018-05-03T04:16:32.769Z,95.39
2018-05-03T04:19:13.675Z,95.42
2018-05-03T04:21:54.103Z,95.35
2018-05-03T04:27:26.963Z,95.20
2018-05-03T04:29:56.538Z,95.03
2018-05-03T04:32:26.121Z,94.88
2018-05-03T04:34:56.315Z,94.77
2018-05-03T04:37:25.880Z,94.46
2018-05-03T04:39:55.461Z,94.04
2018-05-03T04:42:25.032Z,93.82
2018-05-03T04:44:54.604Z,93.24
2018-05-03T04:47:24.199Z,92.77
2018-05-03T04:49:53.762Z,92.66
2018-05-03T04:52:23.354Z,92.46
2018-05-03T04:54:52.925Z,92.25
2018-05-03T04:57:22.486Z,91.62
2018-05-03T04:59:52.039Z,91.34
2018-05-03T05:02:21.680Z,91.09
2018-05-03T05:04:51.351Z,91.05
2018-05-03T05:07:21.050Z,90.91
2018-05-03T05:09:50.618Z,90.54
2018-05-03T05:12:20.484Z,90.44
2018-05-03T05:14:50.083Z,90.12
2018-05-03T05:17:19.659Z,89.36
2018-05-03T05:19:49.218Z,88.57
2018-05-03T05:22:18.824Z,88.50
2018-05-03T05:24:48.386Z,88.34
2018-05-03T05:27:17.966Z,88.41
2018-05-03T05:29:47.536Z,88.27
2018-05-03T05:32:17.090Z,87.77
2018-05-03T05:34:46.673Z,87.51
2018-05-03T05:37:16.795Z,87.32
2018-05-03T05:39:46.736Z,87.01
2018-05-03T05:42:16.315Z,86.90
2018-05-03T05:44:45.884Z,86.58
2018-05-03T05:47:15.458Z,86.60
2018-05-03T05:49:45.017Z,86.53
2018-05-03T05:52:14.578Z,85.92
2018-05-03T05:54:44.173Z,84.85
2018-05-03T05:57:13.735Z,83.98
2018-05-03T05:59:43.322Z,83.83
2018-05-03T06:02:12.883Z,82.78
2018-05-03T06:04:42.588Z,83.12
2018-05-03T06:07:12.148Z,82.00
2018-05-03T06:09:41.711Z,82.10
2018-05-03T06:12:11.304Z,80.44
2018-05-03T06:14:40.864Z,80.42
2018-05-03T06:17:10.434Z,81.89
2018-05-03T06:19:40.191Z,82.56
2018-05-03T06:22:09.744Z,83.03
2018-05-03T06:24:39.090Z,81.15
2018-05-03T06:27:08.646Z,80.70
2018-05-03T06:29:38.223Z,79.83
2018-05-03T06:32:07.867Z,79.74
2018-05-03T06:34:37.430Z,78.63
2018-05-03T06:37:07.034Z,79.18
2018-05-03T06:39:36.597Z,79.43
2018-05-03T06:42:06.159Z,79.72
2018-05-03T06:44:35.723Z,78.60
2018-05-03T06:47:04.963Z,78.08
2018-05-03T06:49:34.679Z,77.58
2018-05-03T06:52:04.234Z,78.12
2018-05-03T06:54:33.801Z,78.03
2018-05-03T06:57:03.409Z,77.39
2018-05-03T06:59:32.976Z,77.21
2018-05-03T07:02:02.551Z,77.09
2018-05-03T07:04:32.300Z,76.39
2018-05-03T07:07:01.883Z,74.70
2018-05-03T07:09:31.586Z,74.67
2018-05-03T07:12:01.159Z,74.24
2018-05-03T07:14:30.708Z,73.71
2018-05-03T07:17:00.372Z,73.49
2018-05-03T07:19:29.986Z,73.38
2018-05-03T07:21:59.715Z,72.98
2018-05-03T07:24:29.287Z,73.41
2018-05-03T07:26:58.848Z,72.28
2018-05-03T07:29:28.442Z,71.43
2018-05-03T07:31:58.217Z,72.12
2018-05-03T07:34:27.773Z,72.00
2018-05-03T07:36:57.348Z,70.83
2018-05-03T07:39:26.904Z,71.05
2018-05-03T07:41:56.461Z,72.16
2018-05-03T07:44:26.338Z,73.07
2018-05-03T07:46:55.998Z,71.69
2018-05-03T07:49:25.611Z,71.87
2018-05-03T07:51:55.183Z,71.05
2018-05-03T07:54:24.756Z,70.50
2018-05-03T07:56:54.362Z,70.47
2018-05-03T07:59:24.056Z,70.41
2018-05-03T08:01:53.666Z,70.36
2018-05-03T08:04:23.269Z,70.18
2018-05-03T08:06:52.827Z,70.25
2018-05-03T08:09:22.386Z,68.52
2018-05-03T08:11:51.947Z,68.03
2018-05-03T08:14:21.517Z,67.62
2018-05-03T08:16:51.184Z,67.97
2018-05-03T08:19:20.759Z,67.29
2018-05-03T08:21:50.331Z,66.77
2018-05-03T08:24:19.891Z,66.84
2018-05-03T08:26:49.258Z,66.51
2018-05-03T08:29:18.826Z,65.87
2018-05-03T08:31:48.454Z,65.22
2018-05-03T08:34:17.797Z,66.14
2018-05-03T08:36:47.357Z,65.41
2018-05-03T08:39:16.951Z,65.03
2018-05-03T08:41:46.504Z,64.52
2018-05-03T08:44:16.117Z,64.85
2018-05-03T08:46:45.679Z,64.97
2018-05-03T08:49:18.173Z,65.37
2018-05-03T08:51:50.731Z,64.81
2018-05-03T08:54:23.729Z,64.71
2018-05-03T08:56:57.134Z,65.08
2018-05-03T08:59:30.049Z,64.28
2018-05-03T09:02:02.943Z,63.81
2018-05-03T09:04:35.471Z,62.43
2018-05-03T09:07:08.393Z,62.88
2018-05-03T09:09:41.737Z,62.38
2018-05-03T09:12:14.732Z,62.19
2018-05-03T09:14:47.684Z,61.75
2018-05-03T09:17:20.368Z,61.38
2018-05-03T09:19:53.250Z,60.91
2018-05-03T09:22:26.296Z,61.33
2018-05-03T09:24:59.555Z,60.60
2018-05-03T09:27:32.313Z,59.52
2018-05-03T09:30:03.862Z,59.57
2018-05-03T09:32:36.729Z,58.78
2018-05-03T09:35:09.781Z,58.32
2018-05-03T09:37:42.769Z,58.05
2018-05-03T09:40:15.399Z,58.19
2018-05-03T09:42:47.940Z,58.33
2018-05-03T09:45:22.053Z,57.10
2018-05-03T09:47:54.777Z,56.27
2018-05-03T09:50:27.624Z,56.17
2018-05-03T09:53:00.619Z,56.08
2018-05-03T09:55:33.395Z,55.02
2018-05-03T09:58:05.612Z,54.19
2018-05-03T10:00:38.566Z,54.08
2018-05-03T10:03:08.587Z,53.79
2018-05-03T10:05:38.163Z,53.15
2018-05-03T10:08:07.730Z,52.71
2018-05-03T10:10:37.289Z,52.05
2018-05-03T10:13:06.888Z,51.97
2018-05-03T10:15:36.455Z,51.80
2018-05-03T10:18:06.219Z,50.87
2018-05-03T10:20:35.779Z,51.10
2018-05-03T10:23:05.340Z,51.77
2018-05-03T10:25:34.656Z,50.18
2018-05-03T10:28:04.228Z,49.99
2018-05-03T10:30:33.806Z,50.22
2018-05-03T10:33:03.372Z,49.35
2018-05-03T10:35:32.944Z,49.02
2018-05-03T10:38:02.616Z,48.47
2018-05-03T10:40:32.207Z,48.08
2018-05-03T10:43:01.807Z,48.21
2018-05-03T10:45:31.380Z,47.41
2018-05-03T10:48:00.957Z,47.11
2018-05-03T10:50:30.530Z,46.56
2018-05-03T10:53:00.132Z,46.45
2018-05-03T10:55:29.771Z,46.71
2018-05-03T10:57:59.350Z,46.58
2018-05-03T11:00:28.913Z,45.73
2018-05-03T11:02:58.470Z,45.78
2018-05-03T11:05:28.136Z,43.69
2018-05-03T11:07:57.800Z,42.86
2018-05-03T11:10:27.375Z,43.11
2018-05-03T11:12:56.954Z,42.09
2018-05-03T11:15:26.518Z,42.44
2018-05-03T11:17:56.089Z,42.67
2018-05-03T11:20:25.655Z,42.26
2018-05-03T11:22:55.219Z,41.84
2018-05-03T11:25:24.797Z,40.79
2018-05-03T11:27:54.361Z,38.84
2018-05-03T11:30:24.295Z,37.74
2018-05-03T11:32:53.858Z,38.16
2018-05-03T11:35:23.413Z,35.94
2018-05-03T11:37:52.985Z,35.27
2018-05-03T11:40:22.548Z,34.48
2018-05-03T11:42:52.129Z,33.28
2018-05-03T11:45:21.694Z,34.28
2018-05-03T11:47:51.258Z,32.94
2018-05-03T11:50:20.807Z,31.75
2018-05-03T11:52:50.381Z,30.77
2018-05-03T11:55:19.943Z,31.79
2018-05-03T11:57:49.403Z,30.74
2018-05-03T12:00:18.763Z,32.73
2018-05-03T12:02:48.324Z,34.15
2018-05-03T12:05:17.889Z,35.00
2018-05-03T12:07:47.465Z,36.00
2018-05-03T12:10:17.041Z,35.87
2018-05-03T12:12:46.627Z,36.87
2018-05-03T12:15:16.191Z,36.96
2018-05-03T12:17:45.753Z,38.25
2018-05-03T12:20:15.319Z,39.86
2018-05-03T12:22:44.886Z,40.82
2018-05-03T12:25:14.522Z,39.86
2018-05-03T12:27:44.088Z,39.06
2018-05-03T12:30:13.645Z,39.54
2018-05-03T12:32:43.220Z,40.09
2018-05-03T12:35:12.810Z,40.09
2018-05-03T12:37:42.422Z,39.83
2018-05-03T12:40:12.009Z,39.16
2018-05-03T12:42:41.567Z,37.18
2018-05-03T12:45:11.118Z,36.57
2018-05-03T12:47:40.713Z,34.27
2018-05-03T12:50:10.267Z,33.83
2018-05-03T12:52:39.873Z,32.25
2018-05-03T12:55:09.419Z,31.99
2018-05-03T12:57:39.054Z,30.61
2018-05-03T13:00:08.672Z,30.08
2018-05-03T13:02:38.250Z,28.45
2018-05-03T13:05:07.799Z,27.15
2018-05-03T13:07:37.119Z,26.02
2018-05-03T13:10:06.763Z,24.68
2018-05-03T13:12:36.632Z,24.14
2018-05-03T13:15:06.328Z,22.57
2018-05-03T13:17:36.075Z,20.56
2018-05-03T13:20:05.673Z,20.63
2018-05-03T13:22:35.407Z,19.68
2018-05-03T13:25:05.071Z,18.46
2018-05-03T13:27:34.828Z,18.86
2018-05-03T13:30:04.067Z,17.64
2018-05-03T13:32:33.646Z,17.66
2018-05-03T13:35:03.216Z,18.08
2018-05-03T13:37:32.786Z,18.52
2018-05-03T13:40:02.388Z,17.42
2018-05-03T13:42:31.964Z,18.17
2018-05-03T13:45:01.272Z,18.02
2018-05-03T13:47:30.917Z,17.55
2018-05-03T13:50:00.590Z,17.65
2018-05-03T13:52:30.138Z,17.51
2018-05-03T13:54:59.502Z,17.25
2018-05-03T13:57:29.047Z,17.47
2018-05-03T13:59:58.617Z,17.08
2018-05-03T14:02:28.183Z,16.83
2018-05-03T14:04:57.738Z,17.27
2018-05-03T14:07:27.309Z,17.16
2018-05-03T14:09:57.078Z,16.73
2018-05-03T14:12:26.640Z,16.44
2018-05-03T14:14:56.194Z,17.97
2018-05-03T14:17:25.752Z,17.68
2018-05-03T14:19:55.079Z,17.73
2018-05-03T14:22:24.655Z,17.75
2018-05-03T14:24:54.213Z,17.67
2018-05-03T14:27:23.763Z,17.64
2018-05-03T14:29:53.339Z,18.22
2018-05-03T14:32:22.945Z,17.73
2018-05-03T14:34:52.512Z,17.72
2018-05-03T14:37:22.080Z,18.04
2018-05-03T14:39:51.648Z,17.71
2018-05-03T14:42:21.204Z,17.84
2018-05-03T14:44:50.810Z,18.62
2018-05-03T14:47:20.437Z,18.38
2018-05-03T14:49:50.222Z,17.75
2018-05-03T14:52:19.772Z,18.22
2018-05-03T14:54:49.331Z,18.24
2018-05-03T14:57:18.950Z,18.44
2018-05-03T14:59:48.519Z,17.94
2018-05-03T15:02:18.091Z,18.59
2018-05-03T15:04:47.663Z,18.60
2018-05-03T15:07:17.216Z,19.37
2018-05-03T15:09:46.791Z,19.84
2018-05-03T15:12:16.447Z,20.07
2018-05-03T15:14:45.808Z,20.18
2018-05-03T15:17:15.378Z,20.03
2018-05-03T15:19:44.922Z,19.95
2018-05-03T15:22:14.494Z,20.20
2018-05-03T15:24:44.188Z,20.15
2018-05-03T15:27:13.744Z,20.64
2018-05-03T15:29:43.350Z,20.04
2018-05-03T15:32:13.023Z,20.86
2018-05-03T15:34:42.381Z,21.65
2018-05-03T15:37:11.978Z,21.60
2018-05-03T15:39:41.577Z,21.64
2018-05-03T15:42:11.186Z,21.41
2018-05-03T15:44:40.793Z,22.54
2018-05-03T15:47:10.513Z,22.59
2018-05-03T15:49:40.163Z,22.88
2018-05-03T15:52:09.739Z,23.88
2018-05-03T15:54:39.308Z,24.38
2018-05-03T15:57:08.864Z,24.73
2018-05-03T15:59:38.458Z,24.28
2018-05-03T16:02:08.051Z,25.39
2018-05-03T16:04:37.622Z,24.57
2018-05-03T16:07:07.176Z,25.40
2018-05-03T16:09:36.747Z,25.17
2018-05-03T16:12:06.295Z,25.35
2018-05-03T16:14:36.071Z,26.20
2018-05-03T16:17:05.868Z,26.97
2018-05-03T16:19:35.417Z,29.08
2018-05-03T16:22:04.992Z,29.70
2018-05-03T16:24:34.239Z,29.94
2018-05-03T16:27:03.641Z,30.69
2018-05-03T16:29:33.435Z,31.60
2018-05-03T16:32:03.015Z,33.21
2018-05-03T16:34:32.632Z,33.43
2018-05-03T16:37:02.354Z,33.10
2018-05-03T16:39:31.904Z,33.58
2018-05-03T16:42:01.490Z,33.75
2018-05-03T16:44:31.065Z,34.05
2018-05-03T16:47:00.634Z,33.18
2018-05-03T16:49:30.460Z,33.02
2018-05-03T16:52:00.011Z,34.50
2018-05-03T16:54:29.605Z,34.04
2018-05-03T16:56:59.208Z,31.54
2018-05-03T16:59:28.892Z,32.19
2018-05-03T17:01:58.510Z,31.50
2018-05-03T17:04:28.071Z,31.33
2018-05-03T17:06:57.655Z,31.54
2018-05-03T17:09:27.233Z,32.37
2018-05-03T17:11:56.787Z,32.02
2018-05-03T17:14:26.395Z,31.80
2018-05-03T17:16:55.963Z,32.89
2018-05-03T17:19:25.545Z,32.50
2018-05-03T17:21:55.103Z,33.75
2018-05-03T17:24:24.675Z,34.74
2018-05-03T17:26:54.238Z,35.69
2018-05-03T17:29:23.904Z,36.03
2018-05-03T17:31:53.470Z,36.15
2018-05-03T17:34:23.038Z,36.25
2018-05-03T17:36:52.626Z,37.48
2018-05-03T17:39:22.617Z,38.12
2018-05-03T17:41:51.966Z,38.90
2018-05-03T17:44:21.566Z,39.73
2018-05-03T17:46:51.099Z,40.45
2018-05-03T17:49:20.666Z,40.15
2018-05-03T17:51:50.328Z,39.86
2018-05-03T17:54:19.889Z,39.64
2018-05-03T17:56:49.718Z,40.71
2018-05-03T17:59:19.439Z,40.77
2018-05-03T18:01:49.007Z,41.05
2018-05-03T18:04:18.690Z,42.48
2018-05-03T18:06:48.608Z,42.17
2018-05-03T18:09:18.166Z,42.82
2018-05-03T18:11:47.738Z,43.51
2018-05-03T18:14:17.292Z,43.41
2018-05-03T18:16:46.865Z,44.44
2018-05-03T18:19:16.607Z,44.77
2018-05-03T18:21:46.185Z,43.47
2018-05-03T18:24:15.907Z,43.83
2018-05-03T18:26:45.494Z,44.36
2018-05-03T18:29:15.035Z,44.94
2018-05-03T18:31:44.631Z,45.71
2018-05-03T18:34:14.224Z,46.25
2018-05-03T18:36:43.987Z,46.82
2018-05-03T18:39:13.560Z,47.34
2018-05-03T18:41:43.211Z,48.10
2018-05-03T18:44:12.936Z,48.58
2018-05-03T18:46:42.507Z,49.47
2018-05-03T18:49:12.088Z,49.76
2018-05-03T18:51:41.660Z,49.22
2018-05-03T18:54:11.050Z,51.77
2018-05-03T18:56:40.697Z,52.82
2018-05-03T18:59:10.273Z,53.74
2018-05-03T19:01:39.847Z,55.42
2018-05-03T19:04:09.423Z,56.15
2018-05-03T19:06:39.018Z,58.24
2018-05-03T19:09:08.599Z,57.99
2018-05-03T19:11:38.269Z,58.32
2018-05-03T19:14:08.667Z,59.40
2018-05-03T19:16:38.263Z,59.84
2018-05-03T19:19:08.018Z,60.05
2018-05-03T19:21:37.839Z,60.32
2018-05-03T19:24:07.418Z,60.51
2018-05-03T19:26:36.972Z,60.73
2018-05-03T19:29:06.552Z,60.97
2018-05-03T19:31:36.128Z,61.35
2018-05-03T19:34:05.741Z,61.56
2018-05-03T19:36:35.317Z,61.55
2018-05-03T19:39:04.431Z,61.54
2018-05-03T19:41:34.213Z,61.47
2018-05-03T19:44:03.863Z,61.27
2018-05-03T19:46:33.497Z,61.34
2018-05-03T19:49:03.070Z,61.48
2018-05-03T19:51:32.664Z,61.44
2018-05-03T19:54:02.247Z,61.27
2018-05-03T19:56:31.831Z,61.34
2018-05-03T19:59:01.403Z,61.58
2018-05-03T20:01:30.966Z,61.18
2018-05-03T20:04:00.546Z,60.77
2018-05-03T20:06:30.339Z,60.41
2018-05-03T20:08:59.933Z,59.80
2018-05-03T20:11:29.512Z,59.66
2018-05-03T20:13:59.146Z,59.66
2018-05-03T20:16:28.771Z,59.16
2018-05-03T20:18:58.337Z,59.35
2018-05-03T20:21:27.902Z,59.47
2018-05-03T20:23:57.474Z,59.73
2018-05-03T20:26:28.502Z,59.96
2018-05-03T20:28:58.654Z,60.51
2018-05-03T20:31:28.369Z,60.94
2018-05-03T20:33:57.954Z,61.43
2018-05-03T20:36:28.283Z,62.04
2018-05-03T20:38:58.020Z,62.30
2018-05-03T20:41:28.527Z,62.99
2018-05-03T20:43:58.507Z,63.37
2018-05-03T20:46:28.096Z,63.66
2018-05-03T20:48:57.909Z,64.12
2018-05-03T20:51:27.798Z,64.49
2018-05-03T20:53:57.747Z,64.50
2018-05-03T20:56:27.481Z,64.74
2018-05-03T20:58:57.211Z,65.46
2018-05-03T21:01:26.896Z,65.76
2018-05-03T21:03:56.486Z,65.77
2018-05-03T21:06:26.069Z,66.08
2018-05-03T21:08:55.887Z,66.29
2018-05-03T21:11:25.471Z,66.52
2018-05-03T21:13:54.954Z,66.43
2018-05-03T21:16:24.598Z,66.51
2018-05-03T21:18:54.393Z,66.67
2018-05-03T21:21:23.979Z,66.81
2018-05-03T21:23:53.541Z,66.92
2018-05-03T21:26:23.204Z,66.90
2018-05-03T21:28:52.915Z,67.15
2018-05-03T21:31:22.644Z,67.21
2018-05-03T21:33:55.137Z,67.37
2018-05-03T21:36:24.587Z,67.10
2018-05-03T21:38:54.358Z,67.23
2018-05-03T21:41:24.844Z,67.25
2018-05-03T21:43:54.424Z,67.66
2018-05-03T21:46:23.979Z,67.61
2018-05-03T21:48:53.669Z,67.60
2018-05-03T21:51:23.250Z,67.60
2018-05-03T21:53:52.831Z,67.61
2018-05-03T21:56:22.180Z,67.60
2018-05-03T21:58:51.747Z,67.68
2018-05-03T22:01:21.103Z,67.82
2018-05-03T22:03:50.526Z,67.77
2018-05-03T22:06:20.332Z,67.64
2018-05-03T22:08:49.911Z,67.72
2018-05-03T22:11:19.632Z,67.63
2018-05-03T22:13:49.299Z,67.79
2018-05-03T22:16:19.220Z,67.74
2018-05-03T22:18:48.795Z,67.87
2018-05-03T22:21:18.366Z,67.89
2018-05-03T22:23:48.677Z,67.87
2018-05-03T22:26:18.271Z,67.92
2018-05-03T22:28:47.894Z,68.02
2018-05-03T22:31:18.016Z,68.41
2018-05-03T22:33:47.629Z,68.47
2018-05-03T22:36:17.287Z,68.83
2018-05-03T22:38:46.855Z,69.09
2018-05-03T22:41:16.459Z,69.03
2018-05-03T22:43:46.145Z,69.31
2018-05-03T22:46:15.763Z,69.45
2018-05-03T22:48:45.399Z,69.65
2018-05-03T22:51:14.997Z,69.54
2018-05-03T22:53:44.576Z,69.43
2018-05-03T22:56:14.155Z,69.66
2018-05-03T22:58:43.734Z,70.02
2018-05-03T23:01:13.328Z,70.26
2018-05-03T23:03:43.090Z,70.40
2018-05-03T23:06:12.704Z,70.49
2018-05-03T23:08:42.297Z,70.70
2018-05-03T23:11:11.941Z,70.83
2018-05-03T23:13:41.572Z,71.33
2018-05-03T23:16:10.948Z,71.11
2018-05-03T23:18:40.599Z,70.98
2018-05-03T23:21:10.313Z,71.22
2018-05-03T23:23:40.510Z,71.28
2018-05-03T23:26:10.807Z,71.81
2018-05-03T23:28:40.427Z,71.98
2018-05-03T23:31:10.113Z,72.12
2018-05-03T23:33:39.809Z,72.25
2018-05-03T23:36:09.376Z,72.12
2018-05-03T23:38:39.070Z,72.65
2018-05-03T23:41:08.671Z,72.50
2018-05-03T23:43:38.299Z,72.76
2018-05-03T23:46:08.698Z,72.93
2018-05-03T23:48:38.271Z,72.92
2018-05-03T23:51:07.844Z,73.14
2018-05-03T23:53:37.422Z,73.15
2018-05-03T23:56:07.066Z,73.16
2018-05-03T23:58:36.761Z,73.35
